Time;durP1;ratioP1;P1;durP2;ratioP2;P2;SDS_P1;SDS_P2;PMS_P1;PMS_P2;Temp;Humidity;BMP_temperature;BMP_pressure;BME280_temperature;BME280_humidity;BME280_pressure;Samples;Min_cycle;Max_cycle;Signal;HPM_P1;HPM_P2
2020/12/25 00:00:36;;;;;;;;;;;21.40;54.70;;;;;;5069843;28;1201;-64
2020/12/25 00:03:01;;;;;;;;;;;21.40;54.80;;;;;;5071645;28;1342;-67
2020/12/25 00:05:27;;;;;;;;;;;21.40;54.90;;;;;;5070350;28;1356;-66
2020/12/25 00:07:53;;;;;;;;;;;21.40;54.90;;;;;;5070523;28;1914;-64
2020/12/25 00:10:18;;;;;;;;;;;21.40;54.90;;;;;;5070889;28;1322;-68
2020/12/25 00:12:44;;;;;;;;;;;21.40;54.90;;;;;;5068106;28;1231;-66
2020/12/25 00:15:09;;;;;;;;;;;21.40;54.90;;;;;;5070799;28;1298;-66
2020/12/25 00:17:35;;;;;;;;;;;21.40;54.90;;;;;;5070580;28;1263;-66
2020/12/25 00:20:01;;;;;;;;;;;21.30;54.90;;;;;;5070767;28;1256;-67
2020/12/25 00:22:26;;;;;;;;;;;21.30;55.00;;;;;;5070930;28;1253;-64
2020/12/25 00:24:51;;;;;;;;;;;21.30;55.00;;;;;;5069776;28;1235;-65
2020/12/25 00:27:17;;;;;;;;;;;21.30;55.00;;;;;;5070706;28;1902;-66
2020/12/25 00:29:42;;;;;;;;;;;21.30;55.10;;;;;;5070999;28;1255;-65
2020/12/25 00:32:08;;;;;;;;;;;21.30;55.10;;;;;;5071147;28;1051;-65
2020/12/25 00:34:33;;;;;;;;;;;21.30;55.10;;;;;;5069908;28;1331;-66
2020/12/25 00:36:59;;;;;;;;;;;21.30;55.20;;;;;;5052526;28;1475;-65
2020/12/25 00:39:24;;;;;;;;;;;21.30;55.20;;;;;;5070905;28;1067;-66
2020/12/25 00:41:50;;;;;;;;;;;21.20;55.20;;;;;;5070600;28;937;-65
2020/12/25 00:44:16;;;;;;;;;;;21.20;55.20;;;;;;5070326;28;1055;-65
2020/12/25 00:46:42;;;;;;;;;;;21.20;55.20;;;;;;5070444;28;1907;-64
2020/12/25 00:49:07;;;;;;;;;;;21.20;55.20;;;;;;5052806;28;1298;-65
2020/12/25 00:51:33;;;;;;;;;;;21.20;55.30;;;;;;5073182;28;1264;-64
2020/12/25 00:53:58;;;;;;;;;;;21.20;55.30;;;;;;5073450;28;1322;-65
2020/12/25 00:56:24;;;;;;;;;;;21.20;55.30;;;;;;5073868;28;1275;-66
2020/12/25 00:58:49;;;;;;;;;;;21.20;55.30;;;;;;5074570;28;1076;-64
2020/12/25 01:01:15;;;;;;;;;;;21.10;55.30;;;;;;5074384;28;1068;-66
2020/12/25 01:03:41;;;;;;;;;;;21.10;55.30;;;;;;5072732;28;1308;-64
2020/12/25 01:06:13;;;;;;;;;;;21.10;55.40;;;;;;5073553;28;1365;-66
2020/12/25 01:08:39;;;;;;;;;;;21.10;55.40;;;;;;5056383;28;1275;-64
2020/12/25 01:11:05;;;;;;;;;;;21.10;55.40;;;;;;5056508;28;1938;-64
2020/12/25 01:13:31;;;;;;;;;;;21.10;55.40;;;;;;5073203;28;1099;-65
2020/12/25 01:16:00;;;;;;;;;;;21.10;55.50;;;;;;5056238;28;1298;-64
2020/12/25 01:18:26;;;;;;;;;;;21.10;55.50;;;;;;5073983;28;1260;-64
2020/12/25 01:20:51;;;;;;;;;;;21.10;55.50;;;;;;5073820;28;1276;-64
2020/12/25 01:23:16;;;;;;;;;;;21.10;55.50;;;;;;5074183;28;1282;-66
2020/12/25 01:25:42;;;;;;;;;;;21.00;55.50;;;;;;5073152;28;1347;-66
2020/12/25 01:28:07;;;;;;;;;;;21.00;55.50;;;;;;5073670;28;1947;-64
2020/12/25 01:30:33;;;;;;;;;;;21.00;56.10;;;;;;5074095;28;1271;-64
2020/12/25 01:32:58;;;;;;;;;;;21.00;55.60;;;;;;5073639;28;1081;-64
2020/12/25 01:35:24;;;;;;;;;;;21.00;55.60;;;;;;5055033;28;1262;-65
2020/12/25 01:37:49;;;;;;;;;;;21.00;55.60;;;;;;5073441;28;1271;-65
2020/12/25 01:40:15;;;;;;;;;;;21.00;55.70;;;;;;5074311;28;1139;-64
2020/12/25 01:42:40;;;;;;;;;;;21.00;55.70;;;;;;5073375;28;1251;-65
2020/12/25 01:45:06;;;;;;;;;;;21.00;55.70;;;;;;5073568;28;1221;-63
2020/12/25 01:47:31;;;;;;;;;;;21.00;55.70;;;;;;5073180;28;1897;-64
2020/12/25 01:49:57;;;;;;;;;;;21.00;55.80;;;;;;5073531;28;1251;-64
2020/12/25 01:52:23;;;;;;;;;;;21.00;55.80;;;;;;5055014;28;1350;-65
2020/12/25 01:54:48;;;;;;;;;;;21.00;55.80;;;;;;5054200;28;1295;-64
2020/12/25 01:57:14;;;;;;;;;;;20.90;55.80;;;;;;5054945;28;1366;-64
2020/12/25 01:59:39;;;;;;;;;;;20.90;56.40;;;;;;5072907;28;1301;-64
2020/12/25 02:02:04;;;;;;;;;;;20.90;55.80;;;;;;5054063;28;1252;-67
2020/12/25 02:04:30;;;;;;;;;;;21.00;55.90;;;;;;5073148;28;1209;-64
2020/12/25 02:06:55;;;;;;;;;;;20.90;55.80;;;;;;5072105;28;1898;-65
2020/12/25 02:09:21;;;;;;;;;;;20.90;55.80;;;;;;5072326;28;1270;-65
2020/12/25 02:11:46;;;;;;;;;;;20.90;55.90;;;;;;5073115;28;1283;-65
2020/12/25 02:14:12;;;;;;;;;;;20.90;55.90;;;;;;5054194;28;1170;-64
2020/12/25 02:16:37;;;;;;;;;;;20.90;55.90;;;;;;5072432;28;1249;-65
2020/12/25 02:19:03;;;;;;;;;;;20.90;55.90;;;;;;5072161;28;1314;-67
2020/12/25 02:21:28;;;;;;;;;;;20.90;55.90;;;;;;5072510;28;1357;-64
2020/12/25 02:23:54;;;;;;;;;;;20.90;55.90;;;;;;5072505;28;1247;-64
2020/12/25 02:26:19;;;;;;;;;;;20.90;55.90;;;;;;5071757;28;1910;-65
2020/12/25 02:28:45;;;;;;;;;;;20.80;55.90;;;;;;5054636;28;1311;-64
2020/12/25 02:31:10;;;;;;;;;;;20.80;55.90;;;;;;5072298;28;1318;-63
2020/12/25 02:33:35;;;;;;;;;;;20.80;55.90;;;;;;5071859;28;1294;-64
2020/12/25 02:36:01;;;;;;;;;;;20.80;55.90;;;;;;5071803;28;1274;-68
2020/12/25 02:38:27;;;;;;;;;;;20.90;56.00;;;;;;5072450;28;918;-64
2020/12/25 02:40:52;;;;;;;;;;;20.80;56.00;;;;;;5072893;28;1087;-64
2020/12/25 02:43:18;;;;;;;;;;;20.80;56.00;;;;;;5069089;28;1770;-63
2020/12/25 02:45:43;;;;;;;;;;;20.80;56.00;;;;;;5072183;28;1393;-66
2020/12/25 02:48:09;;;;;;;;;;;20.80;56.00;;;;;;5072297;28;1898;-64
2020/12/25 02:50:34;;;;;;;;;;;20.80;56.00;;;;;;5071795;28;1091;-64
2020/12/25 02:53:00;;;;;;;;;;;20.80;56.00;;;;;;5072310;28;1322;-65
2020/12/25 02:55:25;;;;;;;;;;;20.80;56.00;;;;;;5071376;28;1357;-67
2020/12/25 02:57:51;;;;;;;;;;;20.80;56.10;;;;;;5071389;28;1432;-64
2020/12/25 03:00:16;;;;;;;;;;;20.80;56.10;;;;;;5054302;28;1252;-65
2020/12/25 03:02:42;;;;;;;;;;;20.80;56.10;;;;;;5072017;28;1143;-65
2020/12/25 03:05:07;;;;;;;;;;;20.80;56.10;;;;;;5070935;28;1361;-64
2020/12/25 03:07:33;;;;;;;;;;;20.80;56.10;;;;;;5069592;28;1973;-65
2020/12/25 03:09:58;;;;;;;;;;;20.70;56.00;;;;;;5066974;28;1287;-69
2020/12/25 03:12:23;;;;;;;;;;;20.80;56.10;;;;;;5070972;28;1292;-64
2020/12/25 03:14:50;;;;;;;;;;;20.80;56.10;;;;;;5069393;28;1352;-64
2020/12/25 03:17:15;;;;;;;;;;;20.70;56.10;;;;;;5070479;28;1687;-64
2020/12/25 03:19:40;;;;;;;;;;;20.80;56.10;;;;;;5070603;28;1344;-64
2020/12/25 03:22:06;;;;;;;;;;;20.80;56.10;;;;;;5070794;28;1407;-67
2020/12/25 03:24:31;;;;;;;;;;;20.70;56.10;;;;;;5070314;28;1608;-64
2020/12/25 03:26:57;;;;;;;;;;;20.70;56.10;;;;;;5069497;28;1898;-65
2020/12/25 03:29:22;;;;;;;;;;;20.70;56.10;;;;;;5070569;28;1276;-65
2020/12/25 03:31:48;;;;;;;;;;;20.70;56.10;;;;;;5070811;28;1309;-65
2020/12/25 03:34:13;;;;;;;;;;;20.70;56.10;;;;;;5070105;28;1348;-70
2020/12/25 03:36:39;;;;;;;;;;;20.70;56.20;;;;;;5052095;28;1299;-64
2020/12/25 03:39:04;;;;;;;;;;;20.70;56.20;;;;;;5051753;28;1292;-66
2020/12/25 03:41:30;;;;;;;;;;;20.70;56.20;;;;;;5069166;28;1352;-65
2020/12/25 03:43:56;;;;;;;;;;;20.70;56.20;;;;;;5070720;28;1301;-64
2020/12/25 03:46:21;;;;;;;;;;;20.70;56.20;;;;;;5034960;28;1972;-65
2020/12/25 03:48:46;;;;;;;;;;;20.70;56.20;;;;;;5070220;28;1406;-68
2020/12/25 03:51:12;;;;;;;;;;;20.70;56.20;;;;;;5070225;28;1297;-65
2020/12/25 03:53:37;;;;;;;;;;;20.70;56.20;;;;;;5069856;28;1217;-64
2020/12/25 03:56:03;;;;;;;;;;;20.60;56.20;;;;;;5071518;28;1346;-64
2020/12/25 03:58:28;;;;;;;;;;;20.70;56.20;;;;;;5072110;28;1275;-63
2020/12/25 04:00:55;;;;;;;;;;;20.70;56.30;;;;;;5072125;28;1379;-64
2020/12/25 04:03:20;;;;;;;;;;;20.70;56.30;;;;;;5071942;28;1247;-64
2020/12/25 04:05:45;;;;;;;;;;;20.70;56.30;;;;;;5071481;28;1322;-64
2020/12/25 04:08:11;;;;;;;;;;;20.70;56.30;;;;;;5071749;28;1914;-64
2020/12/25 04:10:36;;;;;;;;;;;20.70;56.30;;;;;;5072088;28;1344;-63
2020/12/25 04:13:05;;;;;;;;;;;20.60;56.10;;;;;;5072218;28;1242;-65
2020/12/25 04:15:33;;;;;;;;;;;20.70;56.10;;;;;;5053814;28;1352;-64
2020/12/25 04:17:58;;;;;;;;;;;20.70;56.00;;;;;;5071877;28;1247;-64
2020/12/25 04:20:24;;;;;;;;;;;20.80;55.90;;;;;;5071976;28;1359;-63
2020/12/25 04:22:49;;;;;;;;;;;20.90;55.80;;;;;;5071967;28;1522;-64
2020/12/25 04:25:15;;;;;;;;;;;21.00;56.30;;;;;;5071833;28;1278;-67
2020/12/25 04:27:40;;;;;;;;;;;21.00;55.50;;;;;;5075204;28;1902;-64
2020/12/25 04:30:06;;;;;;;;;;;21.20;55.40;;;;;;5075744;28;1295;-64
2020/12/25 04:32:31;;;;;;;;;;;21.20;55.70;;;;;;5074898;28;1077;-66
2020/12/25 04:34:57;;;;;;;;;;;21.30;54.90;;;;;;5075400;28;1302;-64
2020/12/25 04:37:26;;;;;;;;;;;21.40;54.70;;;;;;5075565;28;1323;-65
2020/12/25 04:39:51;;;;;;;;;;;21.50;54.60;;;;;;5075960;28;1292;-65
2020/12/25 04:42:17;;;;;;;;;;;21.60;54.40;;;;;;5075584;28;1324;-64
2020/12/25 04:44:42;;;;;;;;;;;21.70;54.20;;;;;;5075299;28;1287;-63
2020/12/25 04:47:08;;;;;;;;;;;21.70;54.00;;;;;;5075139;28;1897;-64
2020/12/25 04:49:34;;;;;;;;;;;21.70;53.80;;;;;;5075547;28;1200;-64
2020/12/25 04:52:00;;;;;;;;;;;21.80;53.80;;;;;;5044086;28;1220;-64
2020/12/25 04:54:25;;;;;;;;;;;21.80;53.60;;;;;;5074924;28;1374;-65
2020/12/25 04:56:51;;;;;;;;;;;21.90;53.50;;;;;;5075171;28;1325;-63
2020/12/25 04:59:16;;;;;;;;;;;21.90;53.50;;;;;;5075530;28;1365;-64
2020/12/25 05:01:42;;;;;;;;;;;22.00;53.40;;;;;;5075264;28;1310;-64
2020/12/25 05:04:17;;;;;;;;;;;22.00;53.30;;;;;;5056401;28;1286;-67
2020/12/25 05:06:46;;;;;;;;;;;22.00;53.30;;;;;;5074955;28;1902;-64
2020/12/25 05:09:13;;;;;;;;;;;22.10;53.20;;;;;;5079615;23;3732;-69
2020/12/25 05:11:38;;;;;;;;;;;22.10;53.10;;;;;;5088579;28;1712;-69
2020/12/25 05:14:04;;;;;;;;;;;22.20;53.10;;;;;;5086253;28;1755;-70
2020/12/25 05:16:29;;;;;;;;;;;22.20;53.10;;;;;;5093791;28;1368;-68
2020/12/25 05:18:55;;;;;;;;;;;22.20;53.00;;;;;;5095218;28;1358;-69
2020/12/25 05:21:21;;;;;;;;;;;22.20;53.00;;;;;;5094489;28;1470;-70
2020/12/25 05:23:47;;;;;;;;;;;22.20;52.90;;;;;;5094673;28;1696;-70
2020/12/25 05:26:13;;;;;;;;;;;22.20;52.90;;;;;;5095150;28;1400;-70
2020/12/25 05:28:39;;;;;;;;;;;22.30;52.90;;;;;;5093704;28;1965;-69
2020/12/25 05:31:05;;;;;;;;;;;22.30;52.90;;;;;;5093916;28;1466;-69
2020/12/25 05:33:30;;;;;;;;;;;22.30;52.80;;;;;;5094313;28;1412;-69
2020/12/25 05:35:56;;;;;;;;;;;22.30;52.80;;;;;;5093391;28;1648;-69
2020/12/25 05:38:22;;;;;;;;;;;22.30;52.80;;;;;;5094960;28;1292;-69
2020/12/25 05:40:47;;;;;;;;;;;22.30;52.70;;;;;;5095221;28;1698;-69
2020/12/25 05:43:13;;;;;;;;;;;22.40;52.80;;;;;;5095248;28;1614;-69
2020/12/25 05:45:39;;;;;;;;;;;22.40;52.70;;;;;;5094140;28;1401;-69
2020/12/25 05:48:04;;;;;;;;;;;22.40;52.70;;;;;;5073158;28;1961;-70
2020/12/25 05:50:30;;;;;;;;;;;22.40;52.70;;;;;;5092415;28;1394;-67
2020/12/25 05:52:55;;;;;;;;;;;22.40;52.70;;;;;;5094721;28;1663;-68
2020/12/25 05:55:21;;;;;;;;;;;22.40;52.70;;;;;;5094559;28;1400;-68
2020/12/25 05:57:50;;;;;;;;;;;22.40;52.70;;;;;;5093324;28;1693;-68
2020/12/25 06:00:16;;;;;;;;;;;22.40;52.70;;;;;;5093251;28;1417;-67
2020/12/25 06:02:42;;;;;;;;;;;22.40;52.70;;;;;;5095317;28;1141;-69
2020/12/25 06:05:07;;;;;;;;;;;22.40;52.70;;;;;;5093355;28;1414;-68
2020/12/25 06:07:32;;;;;;;;;;;22.40;52.80;;;;;;5093722;28;1888;-68
2020/12/25 06:09:58;;;;;;;;;;;22.40;52.80;;;;;;5093350;28;1553;-70
2020/12/25 06:12:27;;;;;;;;;;;22.40;52.80;;;;;;5093474;28;1397;-69
2020/12/25 06:14:53;;;;;;;;;;;22.40;52.90;;;;;;5094765;28;1682;-70
2020/12/25 06:17:20;;;;;;;;;;;22.30;52.90;;;;;;5093075;28;1375;-69
2020/12/25 06:19:54;;;;;;;;;;;22.30;52.90;;;;;;5093056;28;1747;-69
2020/12/25 06:22:21;;;;;;;;;;;22.30;52.90;;;;;;5094208;28;1486;-69
2020/12/25 06:24:47;;;;;;;;;;;22.30;53.00;;;;;;5093780;28;1686;-69
2020/12/25 06:27:13;;;;;;;;;;;22.30;53.00;;;;;;5093793;28;1965;-69
2020/12/25 06:29:39;;;;;;;;;;;22.30;53.10;;;;;;5094199;28;1220;-69
2020/12/25 06:32:04;;;;;;;;;;;22.20;53.10;;;;;;5072624;28;1533;-69
2020/12/25 06:34:39;;;;;;;;;;;22.20;53.10;;;;;;5093993;28;1688;-69
2020/12/25 06:37:08;;;;;;;;;;;22.20;53.10;;;;;;5094176;28;1402;-69
2020/12/25 06:39:33;;;;;;;;;;;22.20;53.20;;;;;;5094028;28;1400;-69
2020/12/25 06:41:58;;;;;;;;;;;22.20;53.30;;;;;;5092934;28;1416;-70
2020/12/25 06:44:24;;;;;;;;;;;22.20;53.30;;;;;;5092632;28;989;-67
2020/12/25 06:46:50;;;;;;;;;;;22.20;53.30;;;;;;5092024;28;1958;-67
2020/12/25 06:49:16;;;;;;;;;;;22.20;53.40;;;;;;5091952;28;1665;-68
2020/12/25 06:51:42;;;;;;;;;;;22.10;53.40;;;;;;5092677;28;1520;-69
2020/12/25 06:54:12;;;;;;;;;;;22.10;53.40;;;;;;5093602;28;1189;-69
2020/12/25 06:56:41;;;;;;;;;;;22.10;53.50;;;;;;5092518;28;1643;-69
2020/12/25 06:59:12;;;;;;;;;;;22.10;53.50;;;;;;5081615;28;1698;-69
2020/12/25 07:01:42;;;;;;;;;;;22.10;53.50;;;;;;5091864;28;1904;-69
2020/12/25 07:04:28;;;;;;;;;;;22.00;53.60;;;;;;5093513;28;1267;-69
2020/12/25 07:06:54;;;;;;;;;;;22.00;53.60;;;;;;5092236;28;1957;-69
2020/12/25 07:09:20;;;;;;;;;;;22.00;53.60;;;;;;5092371;28;1739;-68
2020/12/25 07:11:51;;;;;;;;;;;22.00;53.70;;;;;;5093572;28;1208;-70
2020/12/25 07:14:17;;;;;;;;;;;22.00;53.70;;;;;;5088711;28;1448;-71
2020/12/25 07:16:42;;;;;;;;;;;21.90;53.70;;;;;;5091768;28;1656;-71
2020/12/25 07:19:08;;;;;;;;;;;21.90;53.70;;;;;;5093034;28;1485;-70
2020/12/25 07:21:33;;;;;;;;;;;21.90;53.80;;;;;;5091527;28;1421;-70
2020/12/25 07:23:59;;;;;;;;;;;21.90;53.80;;;;;;5091962;28;1397;-70
2020/12/25 07:26:24;;;;;;;;;;;21.90;53.90;;;;;;5091833;28;1718;-71
2020/12/25 07:28:50;;;;;;;;;;;21.90;53.90;;;;;;5091997;28;1906;-71
2020/12/25 07:31:15;;;;;;;;;;;21.90;53.90;;;;;;5091251;28;1551;-69
2020/12/25 07:33:41;;;;;;;;;;;21.90;53.90;;;;;;5093364;28;1726;-69
2020/12/25 07:36:09;;;;;;;;;;;21.80;53.90;;;;;;5091244;28;1480;-69
2020/12/25 07:38:35;;;;;;;;;;;21.80;53.90;;;;;;5093431;28;1657;-69
2020/12/25 07:41:00;;;;;;;;;;;21.80;54.00;;;;;;5093362;28;1456;-69
2020/12/25 07:43:26;;;;;;;;;;;21.80;54.00;;;;;;5092236;28;1256;-70
2020/12/25 07:45:51;;;;;;;;;;;21.80;54.10;;;;;;5092246;28;1385;-70
2020/12/25 07:48:18;;;;;;;;;;;21.80;54.10;;;;;;5092848;28;1895;-72
2020/12/25 07:50:44;;;;;;;;;;;21.80;54.10;;;;;;5091562;28;1553;-71
2020/12/25 07:53:09;;;;;;;;;;;21.70;54.10;;;;;;5091434;28;1625;-70
2020/12/25 07:55:35;;;;;;;;;;;21.70;54.20;;;;;;5092555;28;1360;-70
2020/12/25 07:58:01;;;;;;;;;;;21.70;54.20;;;;;;5092753;28;1413;-69
2020/12/25 08:00:26;;;;;;;;;;;21.70;54.20;;;;;;5091700;28;1469;-70
2020/12/25 08:02:52;;;;;;;;;;;21.70;54.30;;;;;;5091041;28;1382;-70
2020/12/25 08:05:18;;;;;;;;;;;21.70;54.30;;;;;;5092219;28;1679;-70
2020/12/25 08:07:43;;;;;;;;;;;21.70;54.30;;;;;;5090625;28;1938;-70
2020/12/25 08:10:12;;;;;;;;;;;21.70;54.40;;;;;;5091192;28;1239;-70
2020/12/25 08:12:46;;;;;;;;;;;21.70;54.30;;;;;;5091595;28;1456;-70
2020/12/25 08:15:12;;;;;;;;;;;21.70;54.30;;;;;;5091013;28;1319;-70
2020/12/25 08:17:37;;;;;;;;;;;21.70;54.30;;;;;;5091743;28;1514;-71
2020/12/25 08:20:03;;;;;;;;;;;21.70;54.20;;;;;;5085144;28;2032;-70
2020/12/25 08:22:29;;;;;;;;;;;21.80;54.20;;;;;;5085580;28;1552;-70
2020/12/25 08:24:54;;;;;;;;;;;21.80;54.00;;;;;;5092107;28;1402;-70
2020/12/25 08:27:20;;;;;;;;;;;21.90;53.90;;;;;;5091655;28;1982;-70
2020/12/25 08:29:48;;;;;;;;;;;21.90;53.80;;;;;;5091119;28;1625;-71
2020/12/25 08:32:13;;;;;;;;;;;22.00;53.70;;;;;;5092137;28;1341;-70
2020/12/25 08:34:39;;;;;;;;;;;22.10;53.70;;;;;;5091856;28;1665;-70
2020/12/25 08:37:09;;;;;;;;;;;22.10;53.50;;;;;;5092525;28;1704;-71
2020/12/25 08:39:34;;;;;;;;;;;22.20;53.50;;;;;;5092491;28;1691;-70
2020/12/25 08:42:00;;;;;;;;;;;22.20;53.30;;;;;;5091075;28;1441;-70
2020/12/25 08:44:25;;;;;;;;;;;22.20;53.20;;;;;;5092076;28;1372;-70
2020/12/25 08:47:04;;;;;;;;;;;22.20;53.20;;;;;;5090647;28;1897;-71
2020/12/25 08:49:29;;;;;;;;;;;22.30;53.20;;;;;;5089955;28;1375;-69
2020/12/25 08:51:55;;;;;;;;;;;22.30;53.10;;;;;;5091828;28;1240;-71
2020/12/25 08:54:25;;;;;;;;;;;22.30;53.10;;;;;;5090477;28;1476;-71
2020/12/25 08:56:50;;;;;;;;;;;22.30;53.30;;;;;;5091527;28;1138;-70
2020/12/25 08:59:16;;;;;;;;;;;22.30;53.10;;;;;;5092030;28;1373;-68
2020/12/25 09:01:42;;;;;;;;;;;22.30;53.00;;;;;;5090684;28;1699;-72
2020/12/25 09:04:14;;;;;;;;;;;22.30;53.00;;;;;;5073805;28;943;-71
2020/12/25 09:06:39;;;;;;;;;;;22.30;53.00;;;;;;5087038;28;1955;-70
2020/12/25 09:09:05;;;;;;;;;;;22.30;53.00;;;;;;5078931;28;1865;-71
2020/12/25 09:11:30;;;;;;;;;;;22.30;53.10;;;;;;5090285;28;1762;-70
2020/12/25 09:13:56;;;;;;;;;;;22.30;53.10;;;;;;5090165;28;1477;-70
2020/12/25 09:16:21;;;;;;;;;;;22.30;53.10;;;;;;5094041;28;1727;-70
2020/12/25 09:18:47;;;;;;;;;;;22.30;53.10;;;;;;5094916;28;1381;-69
2020/12/25 09:21:13;;;;;;;;;;;22.20;53.10;;;;;;5094598;28;1668;-69
2020/12/25 09:23:38;;;;;;;;;;;22.30;53.20;;;;;;5093929;28;1114;-70
2020/12/25 09:26:08;;;;;;;;;;;22.20;53.20;;;;;;5077035;28;1430;-69
2020/12/25 09:28:34;;;;;;;;;;;22.20;53.20;;;;;;5094900;28;1973;-71
2020/12/25 09:30:59;;;;;;;;;;;22.20;53.30;;;;;;5094258;28;1422;-69
2020/12/25 09:33:24;;;;;;;;;;;22.20;53.30;;;;;;5094930;28;1320;-71
2020/12/25 09:35:50;;;;;;;;;;;22.20;53.40;;;;;;5094660;28;1439;-72
2020/12/25 09:38:16;;;;;;;;;;;22.20;53.40;;;;;;5095145;28;1396;-71
2020/12/25 09:40:41;;;;;;;;;;;22.20;53.40;;;;;;5095304;28;1582;-70
2020/12/25 09:43:07;;;;;;;;;;;22.20;53.40;;;;;;5093615;28;1645;-72
2020/12/25 09:45:32;;;;;;;;;;;22.10;53.40;;;;;;5093487;28;1706;-72
2020/12/25 09:47:57;;;;;;;;;;;22.10;53.50;;;;;;5094388;28;1967;-72
2020/12/25 09:50:23;;;;;;;;;;;22.10;53.50;;;;;;5094612;28;1510;-71
2020/12/25 09:52:48;;;;;;;;;;;22.10;53.50;;;;;;5094978;28;1343;-71
2020/12/25 09:55:14;;;;;;;;;;;22.10;53.50;;;;;;5094407;28;1472;-72
2020/12/25 09:57:39;;;;;;;;;;;22.10;53.50;;;;;;5093212;28;1686;-71
2020/12/25 10:00:08;;;;;;;;;;;22.20;53.50;;;;;;5094759;28;1697;-70
2020/12/25 10:02:34;;;;;;;;;;;22.20;53.50;;;;;;5094941;28;1652;-71
2020/12/25 10:04:59;;;;;;;;;;;22.20;53.40;;;;;;5094178;28;1679;-71
2020/12/25 10:07:25;;;;;;;;;;;22.20;53.40;;;;;;5094312;28;1967;-71
2020/12/25 10:09:50;;;;;;;;;;;22.20;53.30;;;;;;5094380;28;1620;-71
2020/12/25 10:12:15;;;;;;;;;;;22.30;53.30;;;;;;5094118;28;1395;-71
2020/12/25 10:14:41;;;;;;;;;;;22.30;53.20;;;;;;5094311;28;1354;-70
2020/12/25 10:17:06;;;;;;;;;;;22.30;53.20;;;;;;5094843;28;1375;-70
2020/12/25 10:19:34;;;;;;;;;;;22.30;53.10;;;;;;5093635;28;1392;-70
2020/12/25 10:21:59;;;;;;;;;;;22.30;53.10;;;;;;5094785;28;1319;-70
2020/12/25 10:24:25;;;;;;;;;;;22.30;53.00;;;;;;5091863;28;1694;-71
2020/12/25 10:26:50;;;;;;;;;;;22.30;53.00;;;;;;5092807;28;1961;-71
2020/12/25 10:29:16;;;;;;;;;;;22.40;53.00;;;;;;5093329;28;1558;-71
2020/12/25 10:31:45;;;;;;;;;;;22.40;53.00;;;;;;5082552;28;1251;-68
2020/12/25 10:34:10;;;;;;;;;;;22.40;53.00;;;;;;5083203;28;1172;-71
2020/12/25 10:36:35;;;;;;;;;;;22.40;52.90;;;;;;5083223;28;1459;-72
2020/12/25 10:39:01;;;;;;;;;;;22.40;53.00;;;;;;5083941;28;1383;-70
2020/12/25 10:41:30;;;;;;;;;;;22.40;53.00;;;;;;5080646;28;1422;-70
2020/12/25 10:43:56;;;;;;;;;;;22.40;53.00;;;;;;5082317;28;1388;-72
2020/12/25 10:46:21;;;;;;;;;;;22.40;53.00;;;;;;5083310;28;1297;-70
2020/12/25 10:48:47;;;;;;;;;;;22.40;53.00;;;;;;5084517;28;1889;-69
2020/12/25 10:51:13;;;;;;;;;;;22.40;53.10;;;;;;5084046;28;1268;-70
2020/12/25 10:53:39;;;;;;;;;;;22.40;53.10;;;;;;5083190;28;1210;-70
2020/12/25 10:56:05;;;;;;;;;;;22.30;53.10;;;;;;5081993;28;1200;-71
2020/12/25 10:58:30;;;;;;;;;;;22.30;53.10;;;;;;5087280;28;1291;-70
2020/12/25 11:00:55;;;;;;;;;;;22.30;53.10;;;;;;5083019;28;1402;-68
2020/12/25 11:03:21;;;;;;;;;;;22.30;53.10;;;;;;5081282;28;1364;-69
2020/12/25 11:05:48;;;;;;;;;;;22.30;53.20;;;;;;5083224;28;1195;-67
2020/12/25 11:08:13;;;;;;;;;;;22.30;53.20;;;;;;5078204;28;1968;-69
2020/12/25 11:10:42;;;;;;;;;;;22.30;53.30;;;;;;5082467;28;1167;-68
2020/12/25 11:13:07;;;;;;;;;;;22.30;53.30;;;;;;5083562;28;1524;-68
2020/12/25 11:15:33;;;;;;;;;;;22.20;53.20;;;;;;5082517;28;1442;-70
2020/12/25 11:17:58;;;;;;;;;;;22.30;53.30;;;;;;5079977;28;1346;-69
2020/12/25 11:20:24;;;;;;;;;;;22.20;53.20;;;;;;5081697;28;1306;-71
2020/12/25 11:22:49;;;;;;;;;;;22.30;53.30;;;;;;5080413;22;2034;-66
2020/12/25 11:25:15;;;;;;;;;;;22.30;53.20;;;;;;5071719;28;1514;-66
2020/12/25 11:27:40;;;;;;;;;;;22.30;53.20;;;;;;5073153;28;2025;-66
2020/12/25 11:30:06;;;;;;;;;;;22.30;53.20;;;;;;5073239;28;1623;-66
2020/12/25 11:32:31;;;;;;;;;;;22.40;53.20;;;;;;5062018;28;1588;-67
2020/12/25 11:34:57;;;;;;;;;;;22.30;53.10;;;;;;5052823;28;1670;-67
2020/12/25 11:37:22;;;;;;;;;;;22.40;53.10;;;;;;5056775;28;1119;-66
2020/12/25 11:39:48;;;;;;;;;;;22.40;53.00;;;;;;5056302;28;1768;-66
2020/12/25 11:42:13;;;;;;;;;;;22.40;53.00;;;;;;5051894;28;1373;-66
2020/12/25 11:44:39;;;;;;;;;;;22.40;52.90;;;;;;5033813;28;1563;-66
2020/12/25 11:47:04;;;;;;;;;;;22.40;52.90;;;;;;5047888;28;1898;-66
2020/12/25 11:49:30;;;;;;;;;;;22.50;52.90;;;;;;5042048;28;1367;-66
2020/12/25 11:51:58;;;;;;;;;;;22.50;52.80;;;;;;5051681;28;1328;-66
2020/12/25 11:54:24;;;;;;;;;;;22.50;52.80;;;;;;5033866;28;1656;-66
2020/12/25 11:56:50;;;;;;;;;;;22.50;52.80;;;;;;5051529;28;1515;-66
2020/12/25 11:59:16;;;;;;;;;;;22.50;52.80;;;;;;5033577;28;1470;-66
2020/12/25 12:01:41;;;;;;;;;;;22.50;52.70;;;;;;5051548;28;1606;-66
2020/12/25 12:04:07;;;;;;;;;;;22.50;52.70;;;;;;5051556;28;1658;-66
2020/12/25 12:06:32;;;;;;;;;;;22.50;52.70;;;;;;5051613;28;1552;-66
2020/12/25 12:08:58;;;;;;;;;;;22.50;52.70;;;;;;5047511;28;2233;-66
2020/12/25 12:11:23;;;;;;;;;;;22.50;52.70;;;;;;5051709;28;1627;-66
2020/12/25 12:13:49;;;;;;;;;;;22.50;52.70;;;;;;5042007;28;1420;-66
2020/12/25 12:16:15;;;;;;;;;;;22.50;52.80;;;;;;5046251;28;2159;-67
2020/12/25 12:18:41;;;;;;;;;;;22.50;52.80;;;;;;5020089;28;1644;-66
2020/12/25 12:21:09;;;;;;;;;;;22.50;52.80;;;;;;5047503;28;1554;-66
2020/12/25 12:23:35;;;;;;;;;;;22.50;52.80;;;;;;5033387;28;1290;-66
2020/12/25 12:26:00;;;;;;;;;;;22.50;52.80;;;;;;5051299;28;1553;-66
2020/12/25 12:28:26;;;;;;;;;;;22.50;52.90;;;;;;5051584;28;1961;-66
2020/12/25 12:30:51;;;;;;;;;;;22.50;52.90;;;;;;5051557;28;1626;-67
2020/12/25 12:33:17;;;;;;;;;;;22.50;52.90;;;;;;5051293;28;1365;-67
2020/12/25 12:35:42;;;;;;;;;;;22.40;53.00;;;;;;5048431;28;1640;-66
2020/12/25 12:38:08;;;;;;;;;;;22.40;53.00;;;;;;5013765;28;1376;-67
2020/12/25 12:40:33;;;;;;;;;;;22.40;53.00;;;;;;5047763;28;1767;-67
2020/12/25 12:42:59;;;;;;;;;;;22.40;53.10;;;;;;5051242;28;1582;-67
2020/12/25 12:45:24;;;;;;;;;;;22.40;53.10;;;;;;5050377;28;1970;-67
2020/12/25 12:47:49;;;;;;;;;;;22.30;53.10;;;;;;5041150;28;1984;-67
2020/12/25 12:50:15;;;;;;;;;;;22.30;53.10;;;;;;5046371;28;1879;-67
2020/12/25 12:52:40;;;;;;;;;;;22.30;53.20;;;;;;5047247;28;1205;-68
2020/12/25 12:55:06;;;;;;;;;;;22.30;53.20;;;;;;5051207;28;1611;-67
2020/12/25 12:57:31;;;;;;;;;;;22.30;53.20;;;;;;5055240;28;1103;-66
2020/12/25 12:59:57;;;;;;;;;;;22.30;53.30;;;;;;5043082;28;1249;-67
2020/12/25 13:02:22;;;;;;;;;;;22.30;53.40;;;;;;5055079;28;1388;-67
2020/12/25 13:04:48;;;;;;;;;;;22.20;53.40;;;;;;5054889;28;1646;-67
2020/12/25 13:07:13;;;;;;;;;;;22.20;53.40;;;;;;5053614;28;2200;-66
2020/12/25 13:09:39;;;;;;;;;;;22.20;53.40;;;;;;5053051;28;1390;-67
2020/12/25 13:12:05;;;;;;;;;;;22.20;53.50;;;;;;5035168;28;2299;-67
2020/12/25 13:14:30;;;;;;;;;;;22.20;53.50;;;;;;5038687;28;1484;-67
2020/12/25 13:16:56;;;;;;;;;;;22.20;53.50;;;;;;5054159;28;1620;-67
2020/12/25 13:19:21;;;;;;;;;;;22.20;53.60;;;;;;5054419;28;1517;-67
2020/12/25 13:21:47;;;;;;;;;;;22.20;53.60;;;;;;5049734;28;1365;-67
2020/12/25 13:24:12;;;;;;;;;;;22.10;53.60;;;;;;5033745;28;1389;-67
2020/12/25 13:26:38;;;;;;;;;;;22.10;53.60;;;;;;5034668;28;1616;-66
2020/12/25 13:29:03;;;;;;;;;;;22.10;53.70;;;;;;5034577;28;1906;-66
2020/12/25 13:31:29;;;;;;;;;;;22.10;53.70;;;;;;5034601;28;1386;-66
2020/12/25 13:33:54;;;;;;;;;;;22.10;53.70;;;;;;5034400;28;1659;-66
2020/12/25 13:36:20;;;;;;;;;;;22.10;53.80;;;;;;5031814;28;1682;-66
2020/12/25 13:38:46;;;;;;;;;;;22.00;53.80;;;;;;5034437;28;1376;-67
2020/12/25 13:41:12;;;;;;;;;;;22.00;53.80;;;;;;5034580;28;1605;-66
2020/12/25 13:43:37;;;;;;;;;;;22.00;53.90;;;;;;4997784;28;1639;-66
2020/12/25 13:46:03;;;;;;;;;;;22.00;53.90;;;;;;5034133;28;1671;-66
2020/12/25 13:48:29;;;;;;;;;;;22.00;53.90;;;;;;5019817;28;1911;-67
2020/12/25 13:50:54;;;;;;;;;;;22.00;53.90;;;;;;5022720;28;1447;-66
2020/12/25 13:53:20;;;;;;;;;;;21.90;53.90;;;;;;5027737;28;1944;-67
2020/12/25 13:55:46;;;;;;;;;;;21.90;54.00;;;;;;5034032;28;1331;-66
2020/12/25 13:58:11;;;;;;;;;;;21.90;54.00;;;;;;5032767;28;1584;-67
2020/12/25 14:00:37;;;;;;;;;;;21.90;54.00;;;;;;5034090;28;1643;-66
2020/12/25 14:03:03;;;;;;;;;;;21.90;54.00;;;;;;5033847;28;1637;-67
2020/12/25 14:05:29;;;;;;;;;;;21.90;54.10;;;;;;5015938;28;1682;-67
2020/12/25 14:07:54;;;;;;;;;;;21.90;54.10;;;;;;5033717;28;1963;-66
2020/12/25 14:10:19;;;;;;;;;;;21.90;54.10;;;;;;5033789;28;1656;-67
2020/12/25 14:12:45;;;;;;;;;;;21.80;54.10;;;;;;5032577;28;1578;-67
2020/12/25 14:15:10;;;;;;;;;;;21.80;54.10;;;;;;5021696;28;1332;-67
2020/12/25 14:17:36;;;;;;;;;;;21.80;54.10;;;;;;5033577;28;1586;-66
2020/12/25 14:20:01;;;;;;;;;;;21.80;54.20;;;;;;5033718;28;1698;-67
2020/12/25 14:22:27;;;;;;;;;;;21.80;54.20;;;;;;5033330;28;1571;-67